Avery, Idaho
Current Conditions -  °F | °C
As of 5:31 AM on Sunday 23 Nov 2014 (Local Time) from KMLP Reporting Station
Overcast Overcast  
Wind Chill: -9°   Ceiling: 400
Heat Index: -4°   Visibility: 10mi
Dew Point: -6°   Wind: 7mph
Humidity: 88%   Direction: NA
Pressure: 29.99"   Gusts: NA
Location:  47.25°N, 115.81°W
Report Text: KMLP 231331Z AUTO VRB06KT 10SM OVC004 M04/M06 A2999 RMK AO2 T10441061
Loading
Personal Weather Stations






























Interactive Weather Map New forecast layout! Learn more

10-Day Weather Forecast

Advertisements
Track Severe Weather on mobile